Time;durP1;ratioP1;P1;durP2;ratioP2;P2;SDS_P1;SDS_P2;PMS_P1;PMS_P2;Temp;Humidity;BMP_temperature;BMP_pressure;BME280_temperature;BME280_humidity;BME280_pressure;Samples;Min_cycle;Max_cycle;Signal;HPM_P1;HPM_P2
2022/10/07 00:01:29;;;;;;;0.40;0.40;;;9.50;99.90;;;;;;6163213;23;20065;-83
2022/10/07 00:03:54;;;;;;;0.30;0.25;;;9.60;99.90;;;;;;6162745;23;20052;-84
2022/10/07 00:06:21;;;;;;;0.20;0.13;;;9.50;99.90;;;;;;6163085;23;20013;-84
2022/10/07 00:08:51;;;;;;;0.20;0.20;;;9.40;99.90;;;;;;6163129;23;20013;-86
2022/10/07 00:11:24;;;;;;;0.00;0.00;;;9.40;99.90;;;;;;6163268;23;20071;-83
2022/10/07 00:13:56;;;;;;;0.20;0.20;;;9.40;99.90;;;;;;6187567;23;20024;-85
2022/10/07 00:16:28;;;;;;;0.55;0.22;;;9.30;99.90;;;;;;6187750;23;20021;-83
2022/10/07 00:18:56;;;;;;;0.20;0.20;;;9.30;99.90;;;;;;6186993;23;20349;-84
2022/10/07 00:21:28;;;;;;;0.03;0.03;;;9.30;99.90;;;;;;6163673;23;20051;-83
2022/10/07 00:23:54;;;;;;;0.20;0.20;;;9.30;99.90;;;;;;6162710;23;20019;-85
2022/10/07 00:26:22;;;;;;;0.17;0.17;;;9.20;99.90;;;;;;6188143;23;20017;-84
2022/10/07 00:28:48;;;;;;;0.22;0.17;;;9.20;99.90;;;;;;6187493;23;20468;-84
2022/10/07 00:31:15;;;;;;;0.43;0.43;;;9.20;99.90;;;;;;6187467;23;20025;-84
2022/10/07 00:33:40;;;;;;;;;;;9.20;99.90;;;;;;6163265;23;20013;-85
2022/10/07 00:36:08;;;;;;;0.10;0.10;;;9.10;99.90;;;;;;6237712;23;20343;-84
2022/10/07 00:38:34;;;;;;;0.30;0.30;;;9.10;99.90;;;;;;6187464;23;20016;-84
2022/10/07 00:41:00;;;;;;;0.83;0.30;;;9.10;99.90;;;;;;6187374;23;20074;-84
2022/10/07 00:43:28;;;;;;;0.73;0.47;;;9.10;99.90;;;;;;6162656;23;20247;-83
2022/10/07 00:45:59;;;;;;;0.20;0.20;;;9.10;99.90;;;;;;6187557;23;20021;-85
2022/10/07 00:48:27;;;;;;;0.93;0.40;;;9.10;99.90;;;;;;6187410;23;20481;-83
2022/10/07 00:50:56;;;;;;;0.60;0.30;;;9.10;99.90;;;;;;6187694;23;20465;-86
2022/10/07 00:53:26;;;;;;;0.10;0.10;;;9.10;99.90;;;;;;6162883;23;20026;-83
2022/10/07 00:55:56;;;;;;;0.10;0.10;;;9.10;99.90;;;;;;6187398;23;20023;-83
2022/10/07 00:58:23;;;;;;;0.13;0.10;;;9.10;99.90;;;;;;6163329;23;20019;-83
2022/10/07 01:00:49;;;;;;;0.20;0.20;;;9.00;99.90;;;;;;6212163;23;20561;-84
2022/10/07 01:03:15;;;;;;;0.13;0.10;;;9.00;99.90;;;;;;6194325;23;20043;-84
2022/10/07 01:05:42;;;;;;;0.10;0.10;;;9.00;99.90;;;;;;6194562;23;20012;-84
2022/10/07 01:08:07;;;;;;;;;;;9.00;99.90;;;;;;6194358;23;20381;-84
2022/10/07 01:10:48;;;;;;;0.40;0.30;;;9.00;99.90;;;;;;6169732;23;19970;-84
2022/10/07 01:13:38;;;;;;;0.22;0.22;;;8.50;99.90;;;;;;6218855;23;20341;-84
2022/10/07 01:16:38;;;;;;;0.30;0.20;;;8.90;99.90;;;;;;6219166;23;20051;-84
2022/10/07 01:19:32;;;;;;;0.52;0.32;;;8.90;99.90;;;;;;6218657;23;20013;-84
2022/10/07 01:22:15;;;;;;;0.20;0.20;;;8.90;99.90;;;;;;6219252;23;20020;-86
2022/10/07 01:24:48;;;;;;;0.25;0.05;;;8.80;99.90;;;;;;6194560;23;20031;-84
2022/10/07 01:27:18;;;;;;;0.50;0.30;;;8.90;99.90;;;;;;6219423;23;20013;-84
2022/10/07 01:30:04;;;;;;;0.20;0.20;;;8.80;99.90;;;;;;6245838;23;20008;-83
2022/10/07 01:32:46;;;;;;;0.90;0.30;;;8.80;99.90;;;;;;6194455;23;20448;-84
2022/10/07 01:35:18;;;;;;;0.10;0.10;;;8.80;99.90;;;;;;6193925;23;20027;-83
2022/10/07 01:37:50;;;;;;;0.28;0.20;;;8.80;99.90;;;;;;6194034;23;20449;-84
2022/10/07 01:40:30;;;;;;;0.85;0.65;;;8.80;99.90;;;;;;6218744;23;20445;-84
2022/10/07 01:42:56;;;;;;;0.22;0.20;;;8.70;99.90;;;;;;6194234;23;20390;-84
2022/10/07 01:45:27;;;;;;;0.65;0.28;;;8.70;99.90;;;;;;6245537;23;20012;-84
2022/10/07 01:47:52;;;;;;;0.20;0.20;;;8.70;99.90;;;;;;6219108;23;20056;-84
2022/10/07 01:50:24;;;;;;;0.20;0.20;;;8.70;99.90;;;;;;6168612;23;20035;-84
2022/10/07 01:53:11;;;;;;;0.52;0.30;;;8.70;99.90;;;;;;6218985;23;20027;-84
2022/10/07 01:55:47;;;;;;;0.10;0.10;;;8.70;99.90;;;;;;6219177;23;20449;-84
2022/10/07 01:58:32;;;;;;;0.17;0.17;;;8.70;99.90;;;;;;6193569;23;20020;-84
2022/10/07 02:01:23;;;;;;;0.30;0.30;;;8.70;99.90;;;;;;6193866;23;20484;-83
2022/10/07 02:04:04;;;;;;;0.65;0.65;;;8.70;99.90;;;;;;6218844;23;20445;-84
2022/10/07 02:06:47;;;;;;;0.10;0.10;;;8.60;99.90;;;;;;6218942;23;20018;-83
2022/10/07 02:09:27;;;;;;;0.00;0.00;;;8.70;99.90;;;;;;6269409;22;20452;-85
2022/10/07 02:12:03;;;;;;;0.20;0.20;;;8.60;99.90;;;;;;6218829;23;20379;-84
2022/10/07 02:14:37;;;;;;;0.98;0.30;;;8.60;99.90;;;;;;6218548;23;20016;-84
2022/10/07 02:17:13;;;;;;;0.52;0.52;;;8.60;99.90;;;;;;6269848;22;20023;-84
2022/10/07 02:19:42;;;;;;;0.65;0.30;;;8.60;99.90;;;;;;6193411;23;20091;-85
2022/10/07 02:22:10;;;;;;;0.20;0.20;;;8.70;99.90;;;;;;6218456;23;20055;-85
2022/10/07 02:24:37;;;;;;;0.30;0.22;;;8.50;99.90;;;;;;6218648;23;20083;-84
2022/10/07 02:27:07;;;;;;;0.20;0.10;;;8.60;99.90;;;;;;6218529;23;20008;-84
2022/10/07 02:29:35;;;;;;;0.65;0.30;;;8.50;99.90;;;;;;6193251;23;20095;-84
2022/10/07 02:32:05;;;;;;;0.10;0.10;;;8.50;99.90;;;;;;6218175;23;20070;-84
2022/10/07 02:34:32;;;;;;;0.85;0.47;;;8.50;99.90;;;;;;6218122;23;20313;-83
2022/10/07 02:37:05;;;;;;;0.10;0.10;;;8.50;99.90;;;;;;6218370;23;20016;-84
2022/10/07 02:39:31;;;;;;;0.20;0.10;;;8.50;99.90;;;;;;6192544;23;20070;-83
2022/10/07 02:42:05;;;;;;;0.10;0.10;;;8.50;99.90;;;;;;6218725;23;20051;-83
2022/10/07 02:44:45;;;;;;;0.55;0.40;;;8.50;99.90;;;;;;6268922;22;20019;-85
2022/10/07 02:47:34;;;;;;;0.40;0.40;;;8.40;99.90;;;;;;6218225;23;20012;-86
2022/10/07 02:50:06;;;;;;;0.15;0.15;;;8.50;99.90;;;;;;6193212;23;20027;-84
2022/10/07 02:52:32;;;;;;;0.70;0.63;;;8.40;99.90;;;;;;6243498;23;20016;-84
2022/10/07 02:55:06;;;;;;;0.10;0.10;;;8.40;99.90;;;;;;6218666;23;20080;-83
2022/10/07 02:57:37;;;;;;;0.05;0.05;;;8.40;99.90;;;;;;6218025;23;20048;-83
2022/10/07 03:00:06;;;;;;;0.30;0.30;;;8.40;99.90;;;;;;6243086;23;20020;-84
2022/10/07 03:02:42;;;;;;;0.20;0.15;;;8.40;99.90;;;;;;6218270;23;20016;-83
2022/10/07 03:05:10;;;;;;;0.32;0.30;;;8.50;99.90;;;;;;6244100;23;20055;-84
2022/10/07 03:07:38;;;;;;;0.20;0.17;;;8.40;99.90;;;;;;6218042;23;20445;-84
2022/10/07 03:10:07;;;;;;;0.13;0.10;;;8.40;99.90;;;;;;6218936;23;20013;-84
2022/10/07 03:12:33;;;;;;;0.20;0.17;;;8.40;99.90;;;;;;6242961;23;20066;-84
2022/10/07 03:14:59;;;;;;;0.20;0.20;;;8.80;99.90;;;;;;6218402;23;20020;-83
2022/10/07 03:17:24;;;;;;;0.30;0.10;;;8.40;99.90;;;;;;6193025;23;20019;-84
2022/10/07 03:19:50;;;;;;;0.20;0.20;;;8.40;99.90;;;;;;6167880;23;20012;-83
2022/10/07 03:22:16;;;;;;;0.30;0.20;;;8.40;99.90;;;;;;6217230;23;20017;-86
2022/10/07 03:24:41;;;;;;;0.57;0.23;;;8.50;99.90;;;;;;6192603;23;20143;-84
2022/10/07 03:27:08;;;;;;;0.27;0.13;;;8.40;99.90;;;;;;6218554;23;20028;-83
2022/10/07 03:29:34;;;;;;;0.20;0.20;;;8.40;99.90;;;;;;6217787;23;20016;-83
2022/10/07 03:32:00;;;;;;;0.43;0.43;;;8.40;99.90;;;;;;6243204;23;20481;-84
2022/10/07 03:34:26;;;;;;;0.20;0.20;;;8.40;99.90;;;;;;6243351;23;20016;-83
2022/10/07 03:36:54;;;;;;;0.20;0.20;;;8.50;99.90;;;;;;6218550;23;20247;-84
2022/10/07 03:39:20;;;;;;;0.40;0.30;;;8.30;99.90;;;;;;6217769;23;20051;-84
2022/10/07 03:41:47;;;;;;;0.20;0.20;;;8.40;99.90;;;;;;6218163;23;20027;-84
2022/10/07 03:44:13;;;;;;;0.20;0.20;;;8.40;99.90;;;;;;6217970;23;20020;-83
2022/10/07 03:46:39;;;;;;;0.20;0.20;;;8.40;99.90;;;;;;6217633;23;20008;-83
2022/10/07 03:49:05;;;;;;;0.15;0.10;;;8.40;99.90;;;;;;6243246;23;20020;-84
2022/10/07 03:51:31;;;;;;;0.30;0.30;;;8.40;99.90;;;;;;6242848;23;20063;-84
2022/10/07 03:53:58;;;;;;;0.63;0.45;;;9.50;99.90;;;;;;6243169;23;20020;-83
2022/10/07 03:56:24;;;;;;;0.20;0.20;;;8.30;99.90;;;;;;6242895;23;20437;-84
2022/10/07 03:58:49;;;;;;;0.68;0.43;;;8.30;99.90;;;;;;6244584;22;20020;-83
2022/10/07 04:01:16;;;;;;;0.10;0.10;;;8.30;99.90;;;;;;6243254;23;20117;-83
2022/10/07 04:03:42;;;;;;;0.65;0.40;;;8.90;99.90;;;;;;6192476;23;20051;-84
2022/10/07 04:06:08;;;;;;;0.57;0.17;;;8.30;99.90;;;;;;6218167;23;20032;-84
2022/10/07 04:08:34;;;;;;;0.10;0.10;;;8.30;99.90;;;;;;6192893;23;20020;-83
2022/10/07 04:11:01;;;;;;;0.47;0.10;;;8.30;99.90;;;;;;6217620;23;20464;-83
2022/10/07 04:13:27;;;;;;;0.10;0.10;;;8.30;99.90;;;;;;6242587;23;20261;-84
2022/10/07 04:15:54;;;;;;;0.60;0.23;;;8.30;99.90;;;;;;6217822;23;20016;-84
2022/10/07 04:18:20;;;;;;;0.20;0.10;;;8.30;99.90;;;;;;6217407;23;20012;-83
2022/10/07 04:20:48;;;;;;;0.20;0.20;;;8.20;99.90;;;;;;6242943;23;20044;-84
2022/10/07 04:23:15;;;;;;;1.40;0.30;;;8.60;99.90;;;;;;6218263;23;20020;-84
2022/10/07 04:25:45;;;;;;;0.10;0.10;;;8.20;99.90;;;;;;6242506;23;20020;-84
2022/10/07 04:28:16;;;;;;;0.35;0.17;;;8.20;99.90;;;;;;6218010;23;20024;-83
2022/10/07 04:30:42;;;;;;;0.28;0.28;;;8.20;99.90;;;;;;6217500;23;20058;-84
2022/10/07 04:33:09;;;;;;;0.20;0.17;;;8.20;99.90;;;;;;6242769;23;20505;-83
2022/10/07 04:35:39;;;;;;;0.32;0.28;;;9.00;99.90;;;;;;6192958;23;20056;-83
2022/10/07 04:38:10;;;;;;;0.20;0.05;;;8.20;99.90;;;;;;6220023;23;20012;-84
2022/10/07 04:40:40;;;;;;;0.10;0.10;;;8.20;99.90;;;;;;6219720;23;20030;-84
2022/10/07 04:43:23;;;;;;;0.30;0.15;;;8.10;99.90;;;;;;6245175;23;20341;-83
2022/10/07 04:45:54;;;;;;;0.30;0.30;;;8.10;99.90;;;;;;6244093;23;20031;-83
2022/10/07 04:48:22;;;;;;;0.28;0.28;;;8.10;99.90;;;;;;6220446;23;20019;-84
2022/10/07 04:50:50;;;;;;;0.00;0.00;;;8.10;99.90;;;;;;6244342;23;20091;-83
2022/10/07 04:53:16;;;;;;;0.30;0.28;;;8.20;99.90;;;;;;6219447;23;20020;-84
2022/10/07 04:55:45;;;;;;;0.30;0.30;;;8.20;99.90;;;;;;6244121;23;20294;-84
2022/10/07 04:58:11;;;;;;;0.08;0.08;;;8.20;99.90;;;;;;6219034;23;20012;-84
2022/10/07 05:00:49;;;;;;;0.55;0.10;;;8.20;99.90;;;;;;6168910;23;20031;-84
2022/10/07 05:03:16;;;;;;;0.10;0.10;;;8.10;99.90;;;;;;6245095;23;20013;-85
2022/10/07 05:05:44;;;;;;;0.10;0.10;;;8.10;99.90;;;;;;6244264;23;20457;-83
2022/10/07 05:08:11;;;;;;;0.30;0.20;;;8.20;99.90;;;;;;6219590;23;20078;-84
2022/10/07 05:10:38;;;;;;;0.43;0.30;;;8.20;99.90;;;;;;6244100;23;20074;-83
2022/10/07 05:13:05;;;;;;;0.55;0.30;;;8.10;99.90;;;;;;6219677;23;20016;-84
2022/10/07 05:15:31;;;;;;;;;;;8.60;99.90;;;;;;6219629;23;20027;-85
2022/10/07 05:17:56;;;;;;;0.30;0.30;;;8.10;99.90;;;;;;6219220;23;19915;-84
2022/10/07 05:20:22;;;;;;;0.50;0.40;;;8.20;99.90;;;;;;6219653;23;20564;-84
2022/10/07 05:22:48;;;;;;;0.20;0.10;;;8.20;99.90;;;;;;6218821;23;20016;-83
2022/10/07 05:25:14;;;;;;;0.10;0.00;;;8.10;99.90;;;;;;6194189;23;20020;-84
2022/10/07 05:27:40;;;;;;;0.20;0.20;;;8.20;99.90;;;;;;6244252;23;20035;-84
2022/10/07 05:30:07;;;;;;;0.10;0.10;;;8.10;99.90;;;;;;6244748;23;20016;-84
2022/10/07 05:32:33;;;;;;;0.52;0.30;;;8.10;99.90;;;;;;6194115;23;20322;-85
2022/10/07 05:35:00;;;;;;;0.47;0.47;;;7.20;99.90;;;;;;6244612;23;20027;-83
2022/10/07 05:37:27;;;;;;;0.43;0.20;;;8.10;99.90;;;;;;6244308;23;20016;-84
2022/10/07 05:39:52;;;;;;;0.17;0.17;;;8.10;99.90;;;;;;6244402;23;20016;-83
2022/10/07 05:42:18;;;;;;;0.27;0.23;;;8.20;99.90;;;;;;6219602;23;20016;-84
2022/10/07 05:44:44;;;;;;;0.17;0.17;;;8.20;99.90;;;;;;6245885;22;20031;-84
2022/10/07 05:47:11;;;;;;;0.40;0.40;;;8.20;99.90;;;;;;6219310;23;20110;-83
2022/10/07 05:49:36;;;;;;;0.10;0.10;;;8.20;99.90;;;;;;6219016;23;20062;-86
2022/10/07 05:52:03;;;;;;;0.10;0.10;;;8.20;99.90;;;;;;6219279;23;20020;-83
2022/10/07 05:54:29;;;;;;;0.40;0.40;;;8.30;99.90;;;;;;6220358;23;20375;-84
2022/10/07 05:56:55;;;;;;;0.20;0.20;;;8.20;99.90;;;;;;6218279;23;20073;-83
2022/10/07 05:59:21;;;;;;;0.73;0.20;;;8.50;99.90;;;;;;6218570;23;20031;-84
2022/10/07 06:01:46;;;;;;;0.30;0.17;;;8.20;99.90;;;;;;6218689;23;20031;-84
2022/10/07 06:04:12;;;;;;;0.10;0.10;;;8.30;99.90;;;;;;6244522;23;20857;-83
2022/10/07 06:06:38;;;;;;;0.80;0.40;;;9.30;99.90;;;;;;6243888;23;20020;-86
2022/10/07 06:14:33;;;;;;;0.28;0.28;;;8.90;99.90;;;;;;6244387;23;20024;-85
2022/10/07 06:16:59;;;;;;;0.40;0.30;;;8.40;99.90;;;;;;6244932;22;20024;-84
2022/10/07 06:19:25;;;;;;;0.15;0.15;;;8.50;99.90;;;;;;6244014;23;20078;-82
2022/10/07 06:21:50;;;;;;;1.70;0.30;;;8.50;99.90;;;;;;6243798;23;20024;-81
2022/10/07 06:24:16;;;;;;;0.57;0.40;;;8.60;99.90;;;;;;6245702;22;20345;-79
2022/10/07 06:26:42;;;;;;;0.60;0.23;;;8.60;99.90;;;;;;6243583;23;20463;-84
2022/10/07 06:29:08;;;;;;;0.20;0.20;;;9.40;99.90;;;;;;6245447;22;20070;-81
2022/10/07 06:31:34;;;;;;;0.40;0.20;;;8.70;99.90;;;;;;6218289;23;20051;-83
2022/10/07 06:34:00;;;;;;;0.10;0.10;;;8.80;99.90;;;;;;6243424;23;20020;-79
2022/10/07 06:36:26;;;;;;;0.10;0.10;;;8.80;99.90;;;;;;6245356;22;20078;-81
2022/10/07 06:38:54;;;;;;;0.40;0.30;;;8.80;99.90;;;;;;6243524;23;20059;-83
2022/10/07 06:41:21;;;;;;;0.32;0.32;;;8.90;99.90;;;;;;6243728;23;20247;-82
2022/10/07 06:43:48;;;;;;;0.10;0.10;;;9.50;99.90;;;;;;6243228;23;20026;-84
2022/10/07 06:46:16;;;;;;;0.20;0.20;;;9.10;99.90;;;;;;6218446;23;20318;-84
2022/10/07 06:48:44;;;;;;;0.43;0.20;;;9.30;99.90;;;;;;6243882;23;20016;-83
2022/10/07 06:51:15;;;;;;;0.20;0.10;;;9.80;99.90;;;;;;6217801;23;20059;-84
2022/10/07 06:53:42;;;;;;;0.20;0.20;;;10.10;99.90;;;;;;6243776;23;20467;-83
2022/10/07 06:56:10;;;;;;;0.20;0.10;;;10.40;99.90;;;;;;6218209;23;20555;-82
2022/10/07 06:58:36;;;;;;;0.17;0.17;;;10.90;99.90;;;;;;6242759;23;20016;-85
2022/10/07 07:01:01;;;;;;;0.20;0.20;;;11.20;99.90;;;;;;6242928;23;20105;-85
2022/10/07 07:03:28;;;;;;;0.17;0.17;;;11.50;99.90;;;;;;6218326;23;20453;-85
2022/10/07 07:05:54;;;;;;;0.10;0.10;;;11.70;99.90;;;;;;6193226;23;20016;-85
2022/10/07 07:08:26;;;;;;;0.20;0.20;;;11.90;99.90;;;;;;6218705;23;20016;-86
2022/10/07 07:10:52;;;;;;;0.20;0.20;;;12.00;99.90;;;;;;6243057;23;20441;-85
2022/10/07 07:13:18;;;;;;;0.35;0.20;;;12.10;99.90;;;;;;6243486;23;20016;-87
2022/10/07 07:15:56;;;;;;;0.30;0.30;;;11.90;99.90;;;;;;6243783;23;20349;-86
2022/10/07 07:18:23;;;;;;;0.10;0.10;;;11.60;99.90;;;;;;6218315;23;20019;-87
2022/10/07 07:20:49;;;;;;;0.40;0.40;;;11.40;99.90;;;;;;6217617;23;20095;-86
2022/10/07 07:23:14;;;;;;;0.83;0.30;;;11.30;99.90;;;;;;6242974;23;20058;-85
2022/10/07 07:25:44;;;;;;;0.20;0.20;;;11.50;99.90;;;;;;6243475;23;20082;-85
2022/10/07 07:28:12;;;;;;;1.55;0.10;;;11.70;99.90;;;;;;6218622;23;20107;-82
2022/10/07 07:30:38;;;;;;;0.60;0.28;;;12.00;99.90;;;;;;6218032;23;20030;-80
2022/10/07 07:33:05;;;;;;;0.10;0.10;;;12.10;99.90;;;;;;6244279;22;20016;-82
2022/10/07 07:35:35;;;;;;;0.25;0.25;;;12.20;99.90;;;;;;6193172;23;20012;-81
2022/10/07 07:38:01;;;;;;;0.25;0.10;;;12.40;99.90;;;;;;6244476;22;20022;-81
2022/10/07 07:40:27;;;;;;;0.10;0.10;;;12.40;99.90;;;;;;6243405;23;20016;-81
2022/10/07 07:42:54;;;;;;;0.10;0.10;;;12.50;99.90;;;;;;6244813;22;20448;-83
2022/10/07 07:45:21;;;;;;;0.13;0.13;;;12.60;99.90;;;;;;6244418;22;20510;-80
2022/10/07 07:47:48;;;;;;;0.43;0.40;;;12.80;99.90;;;;;;6243443;23;20012;-81
2022/10/07 07:50:16;;;;;;;0.00;0.00;;;13.10;99.90;;;;;;6242776;23;20016;-83
2022/10/07 07:52:42;;;;;;;0.10;0.10;;;13.30;99.90;;;;;;6217709;23;20016;-80
2022/10/07 07:55:07;;;;;;;0.20;0.20;;;13.60;99.90;;;;;;6242772;23;20031;-82
2022/10/07 07:57:33;;;;;;;0.20;0.20;;;13.80;99.90;;;;;;6243016;23;20031;-79
2022/10/07 07:59:59;;;;;;;0.63;0.10;;;13.90;99.90;;;;;;6243203;22;20016;-81
2022/10/07 08:02:25;;;;;;;0.50;0.50;;;13.90;99.90;;;;;;6218225;23;20039;-80
2022/10/07 08:04:50;;;;;;;0.93;0.40;;;13.90;99.90;;;;;;6217801;23;20069;-82
2022/10/07 08:07:16;;;;;;;0.50;0.30;;;13.90;99.90;;;;;;6242380;23;20489;-82
2022/10/07 08:09:42;;;;;;;1.00;0.30;;;14.00;99.90;;;;;;6243244;23;20091;-82
2022/10/07 08:12:08;;;;;;;0.10;0.10;;;14.20;99.90;;;;;;6245069;23;20107;-83
2022/10/07 08:14:36;;;;;;;0.00;0.00;;;14.10;99.90;;;;;;6244850;23;20016;-83
2022/10/07 08:17:02;;;;;;;0.15;0.15;;;14.00;99.90;;;;;;6244674;23;20019;-83
2022/10/07 08:19:29;;;;;;;0.10;0.10;;;13.90;99.90;;;;;;6245297;23;20020;-84
2022/10/07 08:21:56;;;;;;;0.40;0.40;;;13.70;99.90;;;;;;6245345;23;20016;-82
2022/10/07 08:24:24;;;;;;;0.10;0.10;;;13.40;99.90;;;;;;6244728;23;20058;-83
2022/10/07 08:26:52;;;;;;;0.15;0.15;;;13.10;99.90;;;;;;6244894;23;20457;-84
2022/10/07 08:29:19;;;;;;;0.05;0.00;;;13.00;99.90;;;;;;6245163;23;20439;-83
2022/10/07 08:31:45;;;;;;;0.30;0.30;;;13.20;99.90;;;;;;6245689;23;20020;-85
2022/10/07 08:34:11;;;;;;;0.10;0.10;;;13.30;99.90;;;;;;6245164;23;20020;-83
2022/10/07 08:36:39;;;;;;;0.10;0.10;;;13.40;99.90;;;;;;6245006;23;20019;-84
2022/10/07 08:39:05;;;;;;;0.10;0.10;;;13.40;99.90;;;;;;6219062;23;20065;-84
2022/10/07 08:41:39;;;;;;;;;;;13.30;99.90;;;;;;6246108;23;20020;-83
2022/10/07 08:44:17;;;;;;;0.10;0.10;;;13.20;99.90;;;;;;6246500;22;20295;-83
2022/10/07 08:46:52;;;;;;;;;;;13.30;99.90;;;;;;6245425;23;20020;-83
2022/10/07 08:49:32;;;;;;;0.20;0.20;;;13.30;99.90;;;;;;6244292;23;19955;-82
2022/10/07 08:52:06;;;;;;;0.30;0.30;;;13.40;99.90;;;;;;6245318;23;20498;-83
2022/10/07 08:54:32;;;;;;;0.20;0.10;;;13.50;99.90;;;;;;6246296;22;20022;-84
2022/10/07 08:57:15;;;;;;;0.32;0.13;;;13.50;99.90;;;;;;6244915;23;20051;-83
2022/10/07 08:59:49;;;;;;;1.25;0.30;;;13.60;99.90;;;;;;6245939;22;20027;-83
2022/10/07 09:02:24;;;;;;;0.10;0.10;;;13.70;99.90;;;;;;6243917;23;20018;-83
2022/10/07 09:05:15;;;;;;;2.90;0.30;;;13.80;99.90;;;;;;6244662;23;20099;-82
2022/10/07 09:07:48;;;;;;;0.13;0.10;;;13.90;99.90;;;;;;6219631;23;20016;-84
2022/10/07 09:10:41;;;;;;;0.10;0.10;;;14.00;99.90;;;;;;6244612;23;20048;-83
2022/10/07 09:13:23;;;;;;;0.28;0.20;;;14.10;99.90;;;;;;6245820;22;20020;-84
2022/10/07 09:16:07;;;;;;;0.00;0.00;;;14.20;99.90;;;;;;6219698;23;20019;-83
2022/10/07 09:18:36;;;;;;;0.55;0.30;;;14.30;99.90;;;;;;6218640;23;20019;-83
2022/10/07 09:21:06;;;;;;;0.15;0.15;;;14.30;99.90;;;;;;6218237;23;20449;-82
2022/10/07 09:23:34;;;;;;;0.10;0.10;;;14.50;99.90;;;;;;6243100;23;20016;-83
2022/10/07 09:26:00;;;;;;;0.10;0.10;;;14.60;99.90;;;;;;6246341;22;20066;-82
2022/10/07 09:28:31;;;;;;;0.10;0.10;;;14.60;99.90;;;;;;6243774;23;20016;-83
2022/10/07 09:31:01;;;;;;;0.30;0.30;;;14.70;99.90;;;;;;6218931;23;20023;-85
2022/10/07 09:33:28;;;;;;;0.00;0.00;;;14.70;99.90;;;;;;6244129;23;20066;-84
2022/10/07 09:36:05;;;;;;;0.08;0.08;;;14.80;99.90;;;;;;6219401;23;20540;-82
2022/10/07 09:38:32;;;;;;;0.00;0.00;;;14.90;99.90;;;;;;6246342;23;20330;-82
2022/10/07 09:41:18;;;;;;;0.10;0.10;;;15.00;99.90;;;;;;6245951;22;20103;-83
2022/10/07 09:43:58;;;;;;;0.30;0.30;;;15.10;99.90;;;;;;6217305;23;20326;-84
2022/10/07 09:46:39;;;;;;;0.10;0.03;;;15.10;99.90;;;;;;6218487;23;20020;-83
2022/10/07 09:49:25;;;;;;;0.17;0.10;;;15.10;99.90;;;;;;6243707;23;20020;-84
2022/10/07 09:52:01;;;;;;;0.40;0.03;;;15.10;99.90;;;;;;6244144;23;20020;-83
2022/10/07 09:54:28;;;;;;;0.20;0.20;;;15.20;99.90;;;;;;6243746;23;20099;-83
2022/10/07 09:56:57;;;;;;;0.10;0.10;;;15.20;99.90;;;;;;6245887;22;20404;-82
2022/10/07 09:59:33;;;;;;;0.10;0.10;;;15.10;99.90;;;;;;6242377;23;20025;-82
2022/10/07 10:02:14;;;;;;;0.00;0.00;;;15.00;99.90;;;;;;6245130;22;20086;-83
2022/10/07 10:04:51;;;;;;;0.10;0.10;;;15.10;99.90;;;;;;6218663;23;20027;-83
2022/10/07 10:07:33;;;;;;;0.00;0.00;;;15.10;99.90;;;;;;6244012;23;20016;-84
2022/10/07 10:10:15;;;;;;;0.00;0.00;;;15.10;99.90;;;;;;6245841;22;20023;-82
2022/10/07 10:12:50;;;;;;;0.20;0.20;;;15.20;99.90;;;;;;6245944;23;20012;-81
2022/10/07 10:15:21;;;;;;;0.38;0.20;;;15.30;99.90;;;;;;6245440;23;20023;-84
2022/10/07 10:17:47;;;;;;;0.03;0.03;;;15.30;99.90;;;;;;6243646;23;20016;-83
2022/10/07 10:20:25;;;;;;;0.60;0.28;;;15.40;99.90;;;;;;6244012;23;20023;-83
2022/10/07 10:22:51;;;;;;;0.00;0.00;;;15.40;99.90;;;;;;6218680;23;20016;-84
2022/10/07 10:28:45;;;;;;;0.20;0.10;;;15.50;99.90;;;;;;6243184;23;20256;-83
2022/10/07 10:31:36;;;;;;;0.10;0.10;;;15.50;99.90;;;;;;6244397;22;20446;-84
2022/10/07 10:34:15;;;;;;;0.00;0.00;;;15.50;99.90;;;;;;6244016;23;20023;-84
2022/10/07 10:36:48;;;;;;;0.68;0.22;;;15.50;99.90;;;;;;6218408;23;20585;-84
2022/10/07 10:39:46;;;;;;;0.10;0.10;;;15.50;99.90;;;;;;6243513;23;20095;-85
2022/10/07 10:42:18;;;;;;;0.60;0.25;;;15.50;99.90;;;;;;6243680;23;20052;-84
2022/10/07 10:45:06;;;;;;;3.33;0.38;;;15.50;99.90;;;;;;6217723;23;20019;-83
2022/10/07 10:48:03;;;;;;;0.32;0.10;;;15.50;99.90;;;;;;6245376;22;20073;-84
2022/10/07 10:50:48;;;;;;;0.10;0.10;;;15.50;99.90;;;;;;6217586;23;20103;-83
2022/10/07 10:53:35;;;;;;;0.08;0.08;;;15.50;99.90;;;;;;6218426;23;20074;-83
2022/10/07 10:56:00;;;;;;;0.00;0.00;;;15.60;99.90;;;;;;6218416;23;20349;-83
2022/10/07 10:58:44;;;;;;;0.03;0.03;;;15.60;99.90;;;;;;6242711;23;20047;-84
2022/10/07 11:01:22;;;;;;;0.30;0.30;;;15.60;99.90;;;;;;6218035;23;20027;-83
2022/10/07 11:04:03;;;;;;;0.00;0.00;;;15.70;99.90;;;;;;6218555;23;20020;-82
2022/10/07 11:06:34;;;;;;;0.00;0.00;;;15.80;99.90;;;;;;6243547;23;20019;-84
2022/10/07 11:09:01;;;;;;;0.95;0.10;;;15.80;99.90;;;;;;6244856;22;20472;-82
2022/10/07 11:11:27;;;;;;;0.10;0.10;;;15.90;99.90;;;;;;6244536;22;20024;-84
2022/10/07 11:14:03;;;;;;;1.00;0.32;;;16.00;99.90;;;;;;6245247;22;20012;-85
2022/10/07 11:16:40;;;;;;;0.03;0.03;;;16.00;99.90;;;;;;6242714;23;20457;-83
2022/10/07 11:19:15;;;;;;;0.10;0.10;;;16.10;99.90;;;;;;6218102;23;20445;-82
2022/10/07 11:21:47;;;;;;;0.28;0.13;;;16.10;99.90;;;;;;6244273;22;20345;-83
2022/10/07 11:24:28;;;;;;;1.45;0.10;;;16.20;99.90;;;;;;6243165;23;20073;-82
2022/10/07 11:27:17;;;;;;;0.03;0.00;;;16.20;99.90;;;;;;6245221;22;20027;-81
2022/10/07 11:30:01;;;;;;;0.15;0.10;;;16.30;99.90;;;;;;6231874;22;20054;-83
2022/10/07 11:32:59;;;;;;;0.10;0.10;;;16.30;99.90;;;;;;6244795;22;20058;-84
2022/10/07 11:35:32;;;;;;;0.10;0.10;;;16.60;99.90;;;;;;6243755;23;20092;-83
2022/10/07 11:38:13;;;;;;;0.20;0.20;;;16.90;99.90;;;;;;6243135;23;20027;-84
2022/10/07 11:40:50;;;;;;;0.20;0.20;;;17.20;99.90;;;;;;6242996;23;20349;-82
2022/10/07 11:43:30;;;;;;;0.10;0.10;;;17.60;99.90;;;;;;6245236;22;20345;-83
2022/10/07 11:46:02;;;;;;;0.00;0.00;;;17.80;99.90;;;;;;6244764;22;20023;-84
2022/10/07 11:48:41;;;;;;;2.85;0.10;;;17.90;99.90;;;;;;6243633;23;20313;-83
2022/10/07 11:51:16;;;;;;;0.20;0.20;;;17.90;99.90;;;;;;6243568;23;20016;-83
2022/10/07 11:53:43;;;;;;;0.05;0.05;;;18.00;99.90;;;;;;6242914;23;20027;-84
2022/10/07 11:56:19;;;;;;;0.00;0.00;;;18.00;99.90;;;;;;6243511;23;20023;-83
2022/10/07 11:58:47;;;;;;;0.20;0.13;;;18.10;99.90;;;;;;6242687;23;20020;-84
2022/10/07 12:01:27;;;;;;;0.03;0.03;;;18.20;99.90;;;;;;6243013;23;20087;-83
2022/10/07 12:04:14;;;;;;;0.20;0.20;;;18.30;99.90;;;;;;6217672;23;20016;-84
2022/10/07 12:07:18;;;;;;;0.10;0.10;;;18.10;99.90;;;;;;6244391;22;20017;-84
2022/10/07 12:10:02;;;;;;;4.10;0.17;;;18.00;99.90;;;;;;6242766;23;20023;-83
2022/10/07 12:12:45;;;;;;;0.10;0.10;;;17.70;99.90;;;;;;6244931;22;20020;-84
2022/10/07 12:15:39;;;;;;;0.00;0.00;;;17.50;99.90;;;;;;6218067;23;20020;-84
2022/10/07 12:18:04;;;;;;;0.00;0.00;;;17.30;99.90;;;;;;6217735;23;20095;-83
2022/10/07 12:20:33;;;;;;;0.33;0.20;;;17.10;99.90;;;;;;6243358;23;20105;-83
2022/10/07 12:23:27;;;;;;;0.22;0.10;;;17.00;99.90;;;;;;6242442;23;20050;-86
2022/10/07 12:26:04;;;;;;;0.52;0.03;;;16.90;99.90;;;;;;6217588;23;20030;-84
2022/10/07 12:28:47;;;;;;;0.45;0.05;;;16.90;99.90;;;;;;6245461;22;20013;-81
2022/10/07 12:31:16;;;;;;;0.20;0.20;;;17.00;99.90;;;;;;6245130;22;20063;-82
2022/10/07 12:33:45;;;;;;;0.35;0.35;;;16.90;99.90;;;;;;6217831;23;20024;-83
2022/10/07 12:36:20;;;;;;;0.00;0.00;;;16.90;99.90;;;;;;6218833;23;20016;-82
2022/10/07 12:38:55;;;;;;;0.00;0.00;;;16.90;99.90;;;;;;6243169;23;20012;-84
2022/10/07 12:41:23;;;;;;;0.00;0.00;;;16.90;99.90;;;;;;6243497;23;20047;-85
2022/10/07 12:44:16;;;;;;;0.10;0.10;;;16.80;99.90;;;;;;6243298;23;20070;-85
2022/10/07 12:46:49;;;;;;;0.00;0.00;;;16.80;99.90;;;;;;6243298;23;20503;-85
2022/10/07 12:49:46;;;;;;;0.00;0.00;;;16.80;99.90;;;;;;6218747;23;20016;-84
2022/10/07 12:52:23;;;;;;;0.00;0.00;;;16.70;99.90;;;;;;6245275;22;20024;-84
2022/10/07 12:55:23;;;;;;;0.00;0.00;;;16.70;99.90;;;;;;6217744;23;20024;-85
2022/10/07 12:59:45;;;;;;;0.10;0.10;;;16.70;99.90;;;;;;6209850;22;20020;-85
2022/10/07 13:01:01;;;;;;;0.15;0.15;;;16.60;99.90;;;;;;6244844;23;20082;-86
2022/10/07 13:03:46;;;;;;;0.00;0.00;;;16.60;99.90;;;;;;6220775;23;20074;-84
2022/10/07 13:06:17;;;;;;;0.00;0.00;;;16.50;99.90;;;;;;6220044;23;20020;-85
2022/10/07 13:08:52;;;;;;;0.00;0.00;;;16.50;99.90;;;;;;6220180;23;20445;-85
2022/10/07 13:11:55;;;;;;;0.50;0.10;;;16.50;99.90;;;;;;6219988;23;20020;-85
2022/10/07 13:14:40;;;;;;;0.03;0.03;;;16.50;99.90;;;;;;6245332;23;20502;-83
2022/10/07 13:17:16;;;;;;;0.00;0.00;;;16.50;99.90;;;;;;6219207;23;20023;-84
2022/10/07 13:20:01;;;;;;;0.00;0.00;;;16.50;99.90;;;;;;6245386;23;20017;-85
2022/10/07 13:22:27;;;;;;;0.20;0.10;;;16.50;99.90;;;;;;6245274;23;20449;-86
2022/10/07 13:24:55;;;;;;;0.10;0.10;;;16.50;99.90;;;;;;6246190;22;20348;-84
2022/10/07 13:27:27;;;;;;;0.28;0.28;;;16.60;99.90;;;;;;6219184;23;20024;-84